createdAt,value
2019-03-13T00:01:44.555Z,49.00
2019-03-13T00:03:49.707Z,49.10
2019-03-13T00:05:57.329Z,48.90
2019-03-13T00:08:02.159Z,49.00
2019-03-13T00:10:08.010Z,49.00
2019-03-13T00:12:13.020Z,49.20
2019-03-13T00:14:17.824Z,49.00
2019-03-13T00:16:22.835Z,48.90
2019-03-13T00:18:27.560Z,48.90
2019-03-13T00:20:32.244Z,48.90
2019-03-13T00:22:37.210Z,48.90
2019-03-13T00:24:42.042Z,48.90
2019-03-13T00:26:47.723Z,48.80
2019-03-13T00:28:52.638Z,48.80
2019-03-13T00:30:58.324Z,48.80
2019-03-13T00:33:03.148Z,48.90
2019-03-13T00:35:07.914Z,49.00
2019-03-13T00:37:12.732Z,49.00
2019-03-13T00:39:17.585Z,49.00
2019-03-13T00:41:22.721Z,49.10
2019-03-13T00:43:27.573Z,49.30
2019-03-13T00:45:32.376Z,49.30
2019-03-13T00:47:37.110Z,49.40
2019-03-13T00:49:41.903Z,49.40
2019-03-13T00:51:46.653Z,49.40
2019-03-13T00:53:51.339Z,49.40
2019-03-13T00:55:56.201Z,49.50
2019-03-13T00:58:02.586Z,49.60
2019-03-13T01:00:07.664Z,49.70
2019-03-13T01:02:19.802Z,49.70
2019-03-13T01:04:34.460Z,49.90
2019-03-13T01:06:42.249Z,49.80
2019-03-13T01:08:47.049Z,49.80
2019-03-13T01:10:52.141Z,49.90
2019-03-13T01:12:56.922Z,50.00
2019-03-13T01:15:01.688Z,50.00
2019-03-13T01:17:08.018Z,50.10
2019-03-13T01:19:13.166Z,50.10
2019-03-13T01:21:18.014Z,50.10
2019-03-13T01:23:22.740Z,50.00
2019-03-13T01:25:27.467Z,50.00
2019-03-13T01:27:33.246Z,50.10
2019-03-13T01:29:37.949Z,50.80
2019-03-13T01:31:49.818Z,50.20
2019-03-13T01:34:04.869Z,50.20
2019-03-13T01:36:10.565Z,50.30
2019-03-13T01:38:15.352Z,50.20
2019-03-13T01:40:20.470Z,50.20
2019-03-13T01:42:25.172Z,50.40
2019-03-13T01:44:29.918Z,50.40
2019-03-13T01:46:34.628Z,50.20
2019-03-13T01:48:39.342Z,50.20
2019-03-13T01:50:44.081Z,50.20
2019-03-13T01:52:48.843Z,50.20
2019-03-13T01:54:53.558Z,50.20
2019-03-13T01:56:58.348Z,50.20
2019-03-13T01:59:03.061Z,50.20
2019-03-13T02:01:07.905Z,50.30
2019-03-13T02:03:12.623Z,50.40
2019-03-13T02:05:17.352Z,50.50
2019-03-13T02:07:22.168Z,50.40
2019-03-13T02:09:26.952Z,50.50
2019-03-13T02:11:31.640Z,50.50
2019-03-13T02:13:36.438Z,50.50
2019-03-13T02:15:41.175Z,50.50
2019-03-13T02:17:45.917Z,50.40
2019-03-13T02:19:50.727Z,50.50
2019-03-13T02:21:55.466Z,50.50
2019-03-13T02:24:00.220Z,51.10
2019-03-13T02:26:05.008Z,50.60
2019-03-13T02:28:09.852Z,50.60
2019-03-13T02:30:15.160Z,50.70
2019-03-13T02:32:20.044Z,50.80
2019-03-13T02:34:24.820Z,50.80
2019-03-13T02:36:29.581Z,50.80
2019-03-13T02:38:34.360Z,50.80
2019-03-13T02:40:39.427Z,50.90
2019-03-13T02:42:44.345Z,50.90
2019-03-13T02:44:49.094Z,50.90
2019-03-13T02:46:53.970Z,50.80
2019-03-13T02:48:58.668Z,50.80
2019-03-13T02:51:03.350Z,50.80
2019-03-13T02:53:08.245Z,50.80
2019-03-13T02:55:13.070Z,50.80
2019-03-13T02:57:17.780Z,50.80
2019-03-13T02:59:22.623Z,51.00
2019-03-13T03:01:46.442Z,51.10
2019-03-13T03:03:53.652Z,51.10
2019-03-13T03:06:00.136Z,51.10
2019-03-13T03:08:05.138Z,50.90
2019-03-13T03:10:10.882Z,51.00
2019-03-13T03:12:17.195Z,51.00
2019-03-13T03:14:22.095Z,51.00
2019-03-13T03:16:26.964Z,50.90
2019-03-13T03:18:31.971Z,51.10
2019-03-13T03:20:36.713Z,51.50
2019-03-13T03:22:41.489Z,51.90
2019-03-13T03:24:46.241Z,52.30
2019-03-13T03:26:51.076Z,51.90
2019-03-13T03:28:57.564Z,51.60
2019-03-13T03:31:02.495Z,50.90
2019-03-13T03:33:07.505Z,51.30
2019-03-13T03:35:12.285Z,51.20
2019-03-13T03:37:18.209Z,50.80
2019-03-13T03:39:23.107Z,50.80
2019-03-13T03:41:28.249Z,50.60
2019-03-13T03:43:40.024Z,50.60
2019-03-13T03:45:39.627Z,50.80
2019-03-13T03:47:44.441Z,50.50
2019-03-13T03:49:50.039Z,50.40
2019-03-13T03:51:54.872Z,50.30
2019-03-13T03:53:59.750Z,50.20
2019-03-13T03:56:04.497Z,50.10
2019-03-13T03:58:09.408Z,50.10
2019-03-13T04:00:14.315Z,50.10
2019-03-13T04:02:19.271Z,50.00
2019-03-13T04:04:24.196Z,49.90
2019-03-13T04:06:28.969Z,49.90
2019-03-13T04:08:37.583Z,50.40
2019-03-13T04:10:40.314Z,49.70
2019-03-13T04:12:45.160Z,49.60
2019-03-13T04:14:50.110Z,49.60
2019-03-13T04:16:54.935Z,49.50
2019-03-13T04:18:59.916Z,49.50
2019-03-13T04:21:04.954Z,49.40
2019-03-13T04:23:09.895Z,49.40
2019-03-13T04:25:34.447Z,49.40
2019-03-13T04:27:39.394Z,49.30
2019-03-13T04:29:44.220Z,49.20
2019-03-13T04:31:49.153Z,49.20
2019-03-13T04:33:53.984Z,49.10
2019-03-13T04:35:58.810Z,49.10
2019-03-13T04:38:03.775Z,49.10
2019-03-13T04:40:08.680Z,49.10
2019-03-13T04:42:13.485Z,48.90
2019-03-13T04:44:18.688Z,48.90
2019-03-13T04:46:25.312Z,48.90
2019-03-13T04:48:30.339Z,48.80
2019-03-13T04:50:35.255Z,48.80
2019-03-13T04:52:40.198Z,48.70
2019-03-13T04:54:45.111Z,48.70
2019-03-13T04:56:49.847Z,48.80
2019-03-13T04:58:54.656Z,48.60
2019-03-13T05:01:01.449Z,48.60
2019-03-13T05:03:06.375Z,48.40
2019-03-13T05:05:40.829Z,48.50
2019-03-13T05:07:46.855Z,48.40
2019-03-13T05:09:53.409Z,48.30
2019-03-13T05:12:00.210Z,48.30
2019-03-13T05:14:05.010Z,48.30
2019-03-13T05:16:09.790Z,48.30
2019-03-13T05:18:14.600Z,48.20
2019-03-13T05:20:19.379Z,48.00
2019-03-13T05:22:24.192Z,48.10
2019-03-13T05:24:29.036Z,48.20
2019-03-13T05:26:33.827Z,48.00
2019-03-13T05:28:38.670Z,48.00
2019-03-13T05:30:43.619Z,47.90
2019-03-13T05:32:48.483Z,47.90
2019-03-13T05:34:53.227Z,47.80
2019-03-13T05:36:58.148Z,47.90
2019-03-13T05:39:04.516Z,47.70
2019-03-13T05:41:09.736Z,47.80
2019-03-13T05:43:15.942Z,47.70
2019-03-13T05:45:20.796Z,47.70
2019-03-13T05:47:25.701Z,47.70
2019-03-13T05:49:30.527Z,47.50
2019-03-13T05:51:35.372Z,47.60
2019-03-13T05:53:40.153Z,47.50
2019-03-13T05:55:46.505Z,47.60
2019-03-13T05:57:51.310Z,47.60
2019-03-13T05:59:56.191Z,47.30
2019-03-13T06:02:00.940Z,47.40
2019-03-13T06:04:06.150Z,47.40
2019-03-13T06:06:12.153Z,47.50
2019-03-13T06:08:18.535Z,47.50
2019-03-13T06:10:23.751Z,47.30
2019-03-13T06:12:28.620Z,47.30
2019-03-13T06:14:33.456Z,47.30
2019-03-13T06:16:38.330Z,47.10
2019-03-13T06:18:43.223Z,47.20
2019-03-13T06:20:48.117Z,47.20
2019-03-13T06:22:53.978Z,47.20
2019-03-13T06:24:58.922Z,47.20
2019-03-13T06:27:03.790Z,46.90
2019-03-13T06:29:08.634Z,47.00
2019-03-13T06:31:13.715Z,46.90
2019-03-13T06:33:18.718Z,47.00
2019-03-13T06:35:23.983Z,47.00
2019-03-13T06:37:28.821Z,46.90
2019-03-13T06:39:33.741Z,47.00
2019-03-13T06:41:42.477Z,46.90
2019-03-13T06:43:47.305Z,46.80
2019-03-13T06:45:52.218Z,46.80
2019-03-13T06:47:57.065Z,47.00
2019-03-13T06:50:02.037Z,46.90
2019-03-13T06:52:07.950Z,46.80
2019-03-13T06:54:12.778Z,46.80
2019-03-13T06:56:17.630Z,46.70
2019-03-13T06:58:33.109Z,46.80
2019-03-13T07:00:56.958Z,46.80
2019-03-13T07:03:07.598Z,46.80
2019-03-13T07:05:21.833Z,46.80
2019-03-13T07:07:45.913Z,46.80
2019-03-13T07:09:56.473Z,47.40
2019-03-13T07:12:20.371Z,46.70
2019-03-13T07:14:34.999Z,46.80
2019-03-13T07:16:48.533Z,46.90
2019-03-13T07:19:03.606Z,47.00
2019-03-13T07:21:27.493Z,46.80
2019-03-13T07:23:45.012Z,46.90
2019-03-13T07:26:05.930Z,47.30
2019-03-13T07:28:17.240Z,47.80
2019-03-13T07:30:40.993Z,47.80
2019-03-13T07:33:05.528Z,47.90
2019-03-13T07:35:29.450Z,48.00
2019-03-13T07:37:53.371Z,48.10
2019-03-13T07:40:12.232Z,48.30
2019-03-13T07:42:36.020Z,48.50
2019-03-13T07:44:51.579Z,48.50
2019-03-13T07:47:05.318Z,48.60
2019-03-13T07:49:29.490Z,48.70
2019-03-13T07:51:53.359Z,48.60
2019-03-13T07:54:11.314Z,48.60
2019-03-13T07:56:32.134Z,48.50
2019-03-13T07:58:44.354Z,48.60
2019-03-13T08:01:08.961Z,48.70
2019-03-13T08:03:32.337Z,48.50
2019-03-13T08:05:43.546Z,48.60
2019-03-13T08:08:07.417Z,48.50
2019-03-13T08:10:31.257Z,48.50
2019-03-13T08:12:49.863Z,48.40
2019-03-13T08:15:13.831Z,48.30
2019-03-13T08:17:37.759Z,48.20
2019-03-13T08:20:01.615Z,48.20
2019-03-13T08:22:18.015Z,48.20
2019-03-13T08:24:42.125Z,48.20
2019-03-13T08:26:57.929Z,48.20
2019-03-13T08:29:12.146Z,48.20
2019-03-13T08:31:36.018Z,48.20
2019-03-13T08:33:55.311Z,48.20
2019-03-13T08:36:19.130Z,48.30
2019-03-13T08:38:31.555Z,48.20
2019-03-13T08:40:53.938Z,48.10
2019-03-13T08:43:17.783Z,48.10
2019-03-13T08:45:41.730Z,48.10
2019-03-13T08:48:00.787Z,48.10
2019-03-13T08:50:12.825Z,48.20
2019-03-13T08:52:36.690Z,48.10
2019-03-13T08:54:56.550Z,48.20
2019-03-13T08:57:13.879Z,48.20
2019-03-13T08:59:25.222Z,48.10
2019-03-13T09:01:50.956Z,48.20
2019-03-13T09:04:14.822Z,48.20
2019-03-13T09:06:40.016Z,48.20
2019-03-13T09:09:03.908Z,48.20
2019-03-13T09:11:29.525Z,48.10
2019-03-13T09:13:53.496Z,48.20
2019-03-13T09:16:05.410Z,48.20
2019-03-13T09:18:17.810Z,48.20
2019-03-13T09:20:41.678Z,48.20
2019-03-13T09:23:05.614Z,48.20
2019-03-13T09:25:23.106Z,48.20
2019-03-13T09:27:36.783Z,48.10
2019-03-13T09:30:00.579Z,48.10
2019-03-13T09:32:27.198Z,48.10
2019-03-13T09:34:51.725Z,48.10
2019-03-13T09:37:15.853Z,48.00
2019-03-13T09:39:42.111Z,48.00
2019-03-13T09:42:05.974Z,48.10
2019-03-13T09:44:23.806Z,48.00
2019-03-13T09:46:47.904Z,48.00
2019-03-13T09:49:14.360Z,47.90
2019-03-13T09:51:37.385Z,47.90
2019-03-13T09:54:03.292Z,47.80
2019-03-13T09:56:23.624Z,47.80
2019-03-13T09:58:47.417Z,47.70
2019-03-13T10:01:06.803Z,47.70
2019-03-13T10:03:31.059Z,47.60
2019-03-13T10:05:44.020Z,47.60
2019-03-13T10:08:08.220Z,47.40
2019-03-13T10:10:33.442Z,47.40
2019-03-13T10:12:52.791Z,47.20
2019-03-13T10:15:09.135Z,47.20
2019-03-13T10:17:32.970Z,47.10
2019-03-13T10:19:55.131Z,47.10
2019-03-13T10:22:08.470Z,47.10
2019-03-13T10:24:21.712Z,47.00
2019-03-13T10:26:45.796Z,47.00
2019-03-13T10:29:01.845Z,46.90
2019-03-13T10:31:25.776Z,46.80
2019-03-13T10:33:38.550Z,46.80
2019-03-13T10:36:02.577Z,46.70
2019-03-13T10:38:36.651Z,46.60
2019-03-13T10:40:55.929Z,46.50
2019-03-13T10:43:08.131Z,46.50
2019-03-13T10:45:19.711Z,46.50
2019-03-13T10:47:43.583Z,46.40
2019-03-13T10:50:03.855Z,46.40
2019-03-13T10:52:14.818Z,46.30
2019-03-13T10:54:34.870Z,46.40
2019-03-13T10:56:58.905Z,46.30
2019-03-13T10:59:22.738Z,46.30
2019-03-13T11:01:36.202Z,46.30
2019-03-13T11:04:00.085Z,46.40
2019-03-13T11:06:20.245Z,46.40
2019-03-13T11:08:36.011Z,46.40
2019-03-13T11:10:55.050Z,46.40
2019-03-13T11:13:12.825Z,46.50
2019-03-13T11:15:23.179Z,46.30
2019-03-13T11:17:49.831Z,46.20
2019-03-13T11:20:13.711Z,46.40
2019-03-13T11:22:25.303Z,46.30
2019-03-13T11:24:36.611Z,46.30
2019-03-13T11:26:51.797Z,46.40
2019-03-13T11:29:15.667Z,46.30
2019-03-13T11:31:30.551Z,46.30
2019-03-13T11:33:54.399Z,46.40
2019-03-13T11:36:18.191Z,46.30
2019-03-13T11:38:31.675Z,46.30
2019-03-13T11:40:55.430Z,46.30
2019-03-13T11:43:19.563Z,46.30
2019-03-13T11:45:34.047Z,46.90
2019-03-13T11:47:50.052Z,46.40
2019-03-13T11:50:01.011Z,46.40
2019-03-13T11:52:26.435Z,46.40
2019-03-13T11:54:50.299Z,46.50
2019-03-13T11:57:14.155Z,47.20
2019-03-13T11:59:28.055Z,46.60
2019-03-13T12:01:46.831Z,46.70
2019-03-13T12:04:10.579Z,46.70
2019-03-13T12:06:30.705Z,46.70
2019-03-13T12:08:54.579Z,46.70
2019-03-13T12:11:06.878Z,46.70
2019-03-13T12:13:30.718Z,46.70
2019-03-13T12:15:42.829Z,46.70
2019-03-13T12:17:55.367Z,46.70
2019-03-13T12:20:19.298Z,46.70
2019-03-13T12:22:44.232Z,46.70
2019-03-13T12:25:08.139Z,46.80
2019-03-13T12:27:31.998Z,46.70
2019-03-13T12:29:55.950Z,46.80
2019-03-13T12:32:19.781Z,46.90
2019-03-13T12:34:34.884Z,46.80
2019-03-13T12:36:58.832Z,46.80
2019-03-13T12:39:12.500Z,46.90
2019-03-13T12:41:30.733Z,47.00
2019-03-13T12:43:54.616Z,47.10
2019-03-13T12:46:18.449Z,47.20
2019-03-13T12:48:42.436Z,47.10
2019-03-13T12:51:06.290Z,47.10
2019-03-13T12:53:30.117Z,47.20
2019-03-13T12:55:53.935Z,47.20
2019-03-13T12:58:08.838Z,47.20
2019-03-13T13:00:32.856Z,47.30
2019-03-13T13:02:47.463Z,47.30
2019-03-13T13:05:06.236Z,47.30
2019-03-13T13:07:30.313Z,47.40
2019-03-13T13:09:54.272Z,47.40
2019-03-13T13:12:19.151Z,47.40
2019-03-13T13:14:35.664Z,47.40
2019-03-13T13:17:02.422Z,47.30
2019-03-13T13:19:07.333Z,47.30
2019-03-13T13:21:12.261Z,47.40
2019-03-13T13:23:17.035Z,47.40
2019-03-13T13:25:21.999Z,47.40
2019-03-13T13:27:27.151Z,47.40
2019-03-13T13:29:32.079Z,47.40
2019-03-13T13:31:36.828Z,47.40
2019-03-13T13:33:41.661Z,47.30
2019-03-13T13:35:46.467Z,47.40
2019-03-13T13:37:51.412Z,47.40
2019-03-13T13:39:57.170Z,47.30
2019-03-13T13:42:02.072Z,47.30
2019-03-13T13:44:06.848Z,47.30
2019-03-13T13:46:18.350Z,47.40
2019-03-13T13:48:23.118Z,47.20
2019-03-13T13:50:27.891Z,47.10
2019-03-13T13:52:32.730Z,46.90
2019-03-13T13:54:38.473Z,46.80
2019-03-13T13:56:43.368Z,46.70
2019-03-13T13:58:48.152Z,46.70
2019-03-13T14:00:52.980Z,46.80
2019-03-13T14:02:58.019Z,46.80
2019-03-13T14:05:02.940Z,46.80
2019-03-13T14:07:07.770Z,46.80
2019-03-13T14:09:13.607Z,46.80
2019-03-13T14:11:18.571Z,46.90
2019-03-13T14:13:23.439Z,46.90
2019-03-13T14:15:28.278Z,46.80
2019-03-13T14:17:34.189Z,46.90
2019-03-13T14:19:40.511Z,46.80
2019-03-13T14:21:45.335Z,46.80
2019-03-13T14:23:50.172Z,46.70
2019-03-13T14:25:55.996Z,46.70
2019-03-13T14:28:00.799Z,46.80
2019-03-13T14:30:06.697Z,46.80
2019-03-13T14:32:11.614Z,46.80
2019-03-13T14:34:16.510Z,46.80
2019-03-13T14:36:21.295Z,46.80
2019-03-13T14:38:26.258Z,46.80
2019-03-13T14:40:31.225Z,46.90
2019-03-13T14:42:36.034Z,46.90
2019-03-13T14:44:40.867Z,46.90
2019-03-13T14:46:45.811Z,46.90
2019-03-13T14:48:50.759Z,46.90
2019-03-13T14:50:56.041Z,46.90
2019-03-13T14:53:00.975Z,46.80
2019-03-13T14:55:07.831Z,47.00
2019-03-13T14:57:12.908Z,47.00
2019-03-13T14:59:18.598Z,47.00
2019-03-13T15:01:25.727Z,46.90
2019-03-13T15:03:30.815Z,47.00
2019-03-13T15:05:35.911Z,47.10
2019-03-13T15:07:40.797Z,47.10
2019-03-13T15:09:45.651Z,47.10
2019-03-13T15:12:10.131Z,47.10
2019-03-13T15:14:15.956Z,47.10
2019-03-13T15:16:20.835Z,47.10
2019-03-13T15:18:26.141Z,47.20
2019-03-13T15:20:30.996Z,47.30
2019-03-13T15:22:35.785Z,47.20
2019-03-13T15:24:40.531Z,47.30
2019-03-13T15:26:45.488Z,47.30
2019-03-13T15:28:50.711Z,47.30
2019-03-13T15:30:56.517Z,47.40
2019-03-13T15:33:01.893Z,47.60
2019-03-13T15:35:07.023Z,47.50
2019-03-13T15:37:11.952Z,47.50
2019-03-13T15:39:17.043Z,47.60
2019-03-13T15:41:21.957Z,48.00
2019-03-13T15:43:27.114Z,48.80
2019-03-13T15:45:32.041Z,49.50
2019-03-13T15:47:36.781Z,50.00
2019-03-13T15:49:46.693Z,50.30
2019-03-13T15:51:51.890Z,50.40
2019-03-13T15:53:56.825Z,50.10
2019-03-13T15:56:01.758Z,50.00
2019-03-13T15:58:06.582Z,49.80
2019-03-13T16:00:14.485Z,49.70
2019-03-13T16:02:19.800Z,49.70
2019-03-13T16:04:24.647Z,49.70
2019-03-13T16:06:29.672Z,49.70
2019-03-13T16:08:34.687Z,49.70
2019-03-13T16:10:39.716Z,49.60
2019-03-13T16:12:44.769Z,49.60
2019-03-13T16:14:49.838Z,49.50
2019-03-13T16:16:55.014Z,49.70
2019-03-13T16:18:59.997Z,49.50
2019-03-13T16:21:05.087Z,49.50
2019-03-13T16:23:10.015Z,49.50
2019-03-13T16:25:15.168Z,49.50
2019-03-13T16:27:20.227Z,49.50
2019-03-13T16:29:25.256Z,49.50
2019-03-13T16:31:30.341Z,49.40
2019-03-13T16:33:44.407Z,49.50
2019-03-13T16:35:53.831Z,49.30
2019-03-13T16:38:02.691Z,49.10
2019-03-13T16:40:15.611Z,48.90
2019-03-13T16:42:26.499Z,48.80
2019-03-13T16:44:38.043Z,48.60
2019-03-13T16:46:48.028Z,48.60
2019-03-13T16:48:54.550Z,48.50
2019-03-13T16:51:03.001Z,48.50
2019-03-13T16:53:11.730Z,48.50
2019-03-13T16:55:20.464Z,48.30
2019-03-13T16:57:29.603Z,48.20
2019-03-13T16:59:39.220Z,48.20
2019-03-13T17:01:49.639Z,48.20
2019-03-13T17:03:59.066Z,48.70
2019-03-13T17:06:08.485Z,48.10
2019-03-13T17:08:17.098Z,48.10
2019-03-13T17:10:34.525Z,48.00
2019-03-13T17:12:48.641Z,48.00
2019-03-13T17:15:06.409Z,48.00
2019-03-13T17:17:21.965Z,47.90
2019-03-13T17:19:34.889Z,47.90
2019-03-13T17:21:51.724Z,47.80
2019-03-13T17:24:02.649Z,47.90
2019-03-13T17:26:10.656Z,47.90
2019-03-13T17:28:19.651Z,47.80
2019-03-13T17:30:33.272Z,47.70
2019-03-13T17:32:46.422Z,47.70
2019-03-13T17:34:57.058Z,47.70
2019-03-13T17:37:13.078Z,47.70
2019-03-13T17:39:19.214Z,47.70
2019-03-13T17:41:32.511Z,47.60
2019-03-13T17:43:53.694Z,47.60
2019-03-13T17:46:07.170Z,47.50
2019-03-13T17:48:18.121Z,47.50
2019-03-13T17:50:26.357Z,47.60
2019-03-13T17:52:38.343Z,47.60
2019-03-13T17:54:45.636Z,47.50
2019-03-13T17:56:54.768Z,47.50
2019-03-13T17:59:01.249Z,47.50
2019-03-13T18:01:06.576Z,47.50
2019-03-13T18:03:13.737Z,47.30
2019-03-13T18:05:21.922Z,47.00
2019-03-13T18:07:27.684Z,47.00
2019-03-13T18:09:34.747Z,47.00
2019-03-13T18:11:40.242Z,47.00
2019-03-13T18:13:46.417Z,47.00
2019-03-13T18:15:52.347Z,47.00
2019-03-13T18:17:57.359Z,47.00
2019-03-13T18:20:02.327Z,47.00
2019-03-13T18:22:11.966Z,47.00
2019-03-13T18:24:18.929Z,47.00
2019-03-13T18:26:25.306Z,47.10
2019-03-13T18:28:31.429Z,47.10
2019-03-13T18:30:36.338Z,47.10
2019-03-13T18:32:47.347Z,47.20
2019-03-13T18:34:52.167Z,47.30
2019-03-13T18:36:59.462Z,47.30
2019-03-13T18:39:05.223Z,47.30
2019-03-13T18:41:13.281Z,47.30
2019-03-13T18:43:20.159Z,47.30
2019-03-13T18:45:27.415Z,47.30
2019-03-13T18:47:33.189Z,47.30
2019-03-13T18:50:02.162Z,47.30
2019-03-13T18:52:08.607Z,47.30
2019-03-13T18:54:13.436Z,47.30
2019-03-13T18:56:19.446Z,47.30
2019-03-13T18:58:27.698Z,47.30
2019-03-13T19:00:33.290Z,47.30
2019-03-13T19:02:39.992Z,47.30
2019-03-13T19:04:51.809Z,46.70
2019-03-13T19:07:00.461Z,47.20
2019-03-13T19:09:07.428Z,47.20
2019-03-13T19:11:16.710Z,47.20
2019-03-13T19:13:22.760Z,47.10
2019-03-13T19:15:28.589Z,47.10
2019-03-13T19:17:33.487Z,47.10
2019-03-13T19:19:38.658Z,47.20
2019-03-13T19:21:43.982Z,47.30
2019-03-13T19:23:49.056Z,47.20
2019-03-13T19:25:53.938Z,47.20
2019-03-13T19:28:00.417Z,47.30
2019-03-13T19:30:11.001Z,47.40
2019-03-13T19:32:15.967Z,47.40
2019-03-13T19:34:21.977Z,47.50
2019-03-13T19:36:29.828Z,47.60
2019-03-13T19:38:34.855Z,47.70
2019-03-13T19:40:39.923Z,47.80
2019-03-13T19:42:44.887Z,47.90
2019-03-13T19:44:49.805Z,47.90
2019-03-13T19:46:55.005Z,48.60
2019-03-13T19:49:01.521Z,48.00
2019-03-13T19:51:09.774Z,47.90
2019-03-13T19:53:21.620Z,48.00
2019-03-13T19:55:26.668Z,48.00
2019-03-13T19:57:33.388Z,48.00
2019-03-13T19:59:39.536Z,48.00
2019-03-13T20:01:45.710Z,48.00
2019-03-13T20:03:55.457Z,48.00
2019-03-13T20:05:57.898Z,48.10
2019-03-13T20:08:02.739Z,48.10
2019-03-13T20:10:12.588Z,48.10
2019-03-13T20:12:17.708Z,48.10
2019-03-13T20:14:22.807Z,48.10
2019-03-13T20:16:27.712Z,48.20
2019-03-13T20:18:35.859Z,48.10
2019-03-13T20:20:41.196Z,48.00
2019-03-13T20:22:50.862Z,48.00
2019-03-13T20:24:55.638Z,48.00
2019-03-13T20:27:00.573Z,47.90
2019-03-13T20:29:05.782Z,47.80
2019-03-13T20:31:12.921Z,47.60
2019-03-13T20:33:18.859Z,47.60
2019-03-13T20:35:23.960Z,47.60
2019-03-13T20:37:28.977Z,47.50
2019-03-13T20:39:34.018Z,47.40
2019-03-13T20:41:39.076Z,47.40
2019-03-13T20:43:45.954Z,47.50
2019-03-13T20:45:51.378Z,47.40
2019-03-13T20:47:57.435Z,47.40
2019-03-13T20:50:06.365Z,47.40
2019-03-13T20:52:12.670Z,47.50
2019-03-13T20:54:17.930Z,47.50
2019-03-13T20:56:22.830Z,47.40
2019-03-13T20:58:27.685Z,47.50
2019-03-13T21:00:34.766Z,47.50
2019-03-13T21:02:40.311Z,47.60
2019-03-13T21:04:45.497Z,47.50
2019-03-13T21:06:50.531Z,47.50
2019-03-13T21:08:55.552Z,47.60
2019-03-13T21:11:00.769Z,47.60
2019-03-13T21:13:05.708Z,47.50
2019-03-13T21:15:10.858Z,47.60
2019-03-13T21:17:15.853Z,47.60
2019-03-13T21:19:21.922Z,47.60
2019-03-13T21:21:27.159Z,47.60
2019-03-13T21:23:32.152Z,47.60
2019-03-13T21:25:38.755Z,47.60
2019-03-13T21:27:43.718Z,47.60
2019-03-13T21:29:48.659Z,47.60
2019-03-13T21:31:53.660Z,47.70
2019-03-13T21:33:58.454Z,47.60
2019-03-13T21:36:03.268Z,47.60
2019-03-13T21:38:08.157Z,47.50
2019-03-13T21:40:13.929Z,47.60
2019-03-13T21:42:19.890Z,47.50
2019-03-13T21:44:24.776Z,47.50
2019-03-13T21:46:29.670Z,47.50
2019-03-13T21:48:35.678Z,47.50
2019-03-13T21:50:40.466Z,47.40
2019-03-13T21:52:45.510Z,47.40
2019-03-13T21:54:52.105Z,47.40
2019-03-13T21:56:57.138Z,47.40
2019-03-13T21:59:01.947Z,47.30
2019-03-13T22:01:19.326Z,47.30
2019-03-13T22:03:23.904Z,47.30
2019-03-13T22:05:26.314Z,47.30
2019-03-13T22:07:28.189Z,47.30
2019-03-13T22:09:34.252Z,47.40
2019-03-13T22:11:39.249Z,47.20
2019-03-13T22:13:44.075Z,47.30
2019-03-13T22:15:49.309Z,47.20
2019-03-13T22:17:54.118Z,47.30
2019-03-13T22:19:58.945Z,47.20
2019-03-13T22:22:03.779Z,47.30
2019-03-13T22:24:08.844Z,47.40
2019-03-13T22:26:13.992Z,47.30
2019-03-13T22:28:20.873Z,47.30
2019-03-13T22:30:28.628Z,47.20
2019-03-13T22:32:32.559Z,47.20
2019-03-13T22:34:37.310Z,47.30
2019-03-13T22:36:43.132Z,47.30
2019-03-13T22:38:48.062Z,47.30
2019-03-13T22:40:53.091Z,47.30
2019-03-13T22:42:57.910Z,47.30
2019-03-13T22:45:02.854Z,47.40
2019-03-13T22:47:09.507Z,47.40
2019-03-13T22:49:14.461Z,47.60
2019-03-13T22:51:19.520Z,47.70
2019-03-13T22:53:24.593Z,47.70
2019-03-13T22:55:29.515Z,47.80
2019-03-13T22:57:34.908Z,47.80
2019-03-13T22:59:39.834Z,47.90
2019-03-13T23:01:47.714Z,47.90
2019-03-13T23:03:53.602Z,47.90
2019-03-13T23:05:59.099Z,47.90
2019-03-13T23:08:03.982Z,48.00
2019-03-13T23:10:25.685Z,48.10
2019-03-13T23:12:34.170Z,48.20
2019-03-13T23:14:39.052Z,48.10
2019-03-13T23:16:43.978Z,48.20
2019-03-13T23:18:48.847Z,48.20
2019-03-13T23:20:53.774Z,48.30
2019-03-13T23:22:58.559Z,48.20
2019-03-13T23:25:04.461Z,48.20
2019-03-13T23:27:09.352Z,48.30
2019-03-13T23:29:14.294Z,48.20
2019-03-13T23:31:19.019Z,48.20
2019-03-13T23:33:23.857Z,48.30
2019-03-13T23:35:28.698Z,48.30
2019-03-13T23:37:37.446Z,48.30
2019-03-13T23:39:45.723Z,48.30
2019-03-13T23:41:50.752Z,48.40
2019-03-13T23:43:55.659Z,48.40
2019-03-13T23:46:00.475Z,48.60
2019-03-13T23:48:05.368Z,48.50
2019-03-13T23:50:29.492Z,48.50
2019-03-13T23:52:34.335Z,48.50
2019-03-13T23:54:39.196Z,48.50
2019-03-13T23:56:44.052Z,48.60
2019-03-13T23:58:49.013Z,48.50
